• Join FlightAware (Why Join?)
  • Login
  • US Flag 
08:34PM EDT


 

Airport Tracker/Info


-or-


 

Live Flight TrackerFlight Track Log ✈ EJA929 ✈ 07-Jun-2013 ✈ KTEB - KAEJ

Flight Track Log - Related Links

Times and Time Zones

All times are in EDT time to prevent confusion due to time zone crossing. See the EJA929 flight status page for this flight to view local times or setup timezone preferences in your user account.

Time Position Orientation Groundspeed Altitude Reporting Facility
EDT Latitude Longitude Course Direction KTS MPH feet Rate Location/Type
05:10PM 40.8562 -74.2043 273° West  Level FlightAware Approximate
05:11PM 40.8646 -74.4093 273° West  Level FlightAware Approximate
05:12PM 40.8726 -74.6143 273° West  Level FlightAware Approximate
05:13PM 40.8802 -74.8194 273° West  Level FlightAware Approximate
05:14PM 40.8875 -75.0246 273° West  Level FlightAware Approximate
05:15PM 40.8945 -75.2298 273° West  Level FlightAware Approximate
05:16PM 40.9010 -75.4343 272° West  Level FlightAware Approximate
05:17PM 40.9072 -75.6400 272° West  Level FlightAware Approximate
05:18PM 40.9131 -75.8458 272° West  Level FlightAware Approximate
05:19PM 40.9185 -76.0516 272° West  Level FlightAware Approximate
05:20PM 40.9237 -76.2574 272° West  Level FlightAware Approximate
05:21PM 40.9284 -76.4632 272° West  Level FlightAware Approximate
05:22PM 40.9328 -76.6691 272° West  Level FlightAware Approximate
05:23PM 40.9369 -76.8764 272° West  Level FlightAware Approximate
05:24PM 40.9405 -77.0837 271° West  Level FlightAware Approximate
05:25PM 40.9438 -77.2911 271° West  Level FlightAware Approximate
05:26PM 40.9468 -77.4985 271° West  Level FlightAware Approximate
05:27PM 40.9493 -77.7059 271° West  Level FlightAware Approximate
05:28PM 40.9501 -77.9115 270° West  Level FlightAware Approximate
05:29PM 40.9512 -78.1170 271° West  Level FlightAware Approximate
05:30PM 40.9546 -78.3225 271° West  Level FlightAware Approximate
05:31PM 40.9577 -78.5281 271° West  Level FlightAware Approximate
05:32PM 40.9604 -78.7337 271° West  Level FlightAware Approximate
05:33PM 40.9627 -78.9393 271° West  Level FlightAware Approximate
05:34PM 40.9646 -79.1449 271° West  Level FlightAware Approximate
05:35PM 40.9662 -79.3505 271° West  Level FlightAware Approximate
05:36PM 40.9656 -79.5654 270° West  Level FlightAware Approximate
05:37PM 40.9638 -79.7803 269° West  Level FlightAware Approximate
05:38PM 40.9616 -79.9952 269° West  Level FlightAware Approximate
05:39PM 40.9590 -80.2101 269° West  Level FlightAware Approximate
05:40PM 40.9559 -80.4250 269° West  Level FlightAware Approximate
05:41PM 40.9525 -80.6378 269° West  Level FlightAware Approximate
05:42PM 40.9502 -80.8547 270° West  Level FlightAware Approximate
05:43PM 40.9504 -81.0715 270° West  Level FlightAware Approximate
05:44PM 40.9502 -81.2884 270° West  Level FlightAware Approximate
05:45PM 40.9455 -81.5051 268° West  Level FlightAware Approximate
05:46PM 40.9382 -81.7218 268° West  Level FlightAware Approximate
05:47PM 40.9305 -81.9384 267° West  Level FlightAware Approximate
05:48PM 40.9224 -82.1549 267° West  Level FlightAware Approximate
05:49PM 40.9183 -82.3731 272° West  Level FlightAware Approximate
05:50PM 40.9227 -82.5914 272° West  Level FlightAware Approximate
05:51PM 40.9268 -82.8098 271° West  Level FlightAware Approximate
05:52PM 40.9305 -83.0282 271° West  Level FlightAware Approximate
05:53PM 40.9334 -83.2466 270° West  Level FlightAware Approximate
05:54PM 40.9334 -83.4650 270° West  Level FlightAware Approximate
05:55PM 40.9339 -83.6838 270° West  Level FlightAware Approximate
05:56PM 40.9342 -83.9026 270° West  Level FlightAware Approximate
05:57PM 40.9341 -84.1214 270° West  Level FlightAware Approximate
05:58PM 40.9336 -84.3401 270° West  Level FlightAware Approximate
05:59PM 40.9338 -84.5589 270° West  Level FlightAware Approximate
06:00PM 40.9341 -84.7775 270° West  Level FlightAware Approximate
06:01PM 40.9340 -84.9962 270° West  Level FlightAware Approximate
06:02PM 40.9335 -85.2148 270° West  Level FlightAware Approximate
06:03PM 40.9336 -85.0999 90° East  Level FlightAware Approximate
06:04PM 40.9336 -84.8812 90° East  Level FlightAware Approximate
06:05PM 40.9335 -84.7374 270° West  Level FlightAware Approximate
06:06PM 40.9342 -84.9560 270° West  Level FlightAware Approximate
06:07PM 40.9345 -85.1747 270° West  Level FlightAware Approximate
06:08PM 40.9344 -85.3933 270° West  Level FlightAware Approximate
06:09PM 40.9339 -85.6155 270° West  Level FlightAware Approximate
06:10PM 40.9319 -85.8377 269° West  Level FlightAware Approximate
06:11PM 40.9281 -86.0598 269° West  Level FlightAware Approximate
06:12PM 40.9239 -86.2819 269° West  Level FlightAware Approximate
06:13PM 40.9192 -86.5040 268° West  Level FlightAware Approximate
06:14PM 40.9132 -86.7259 268° West  Level FlightAware Approximate
06:15PM 40.9059 -86.9478 268° West  Level FlightAware Approximate
06:16PM 40.8982 -87.1697 267° West  Level FlightAware Approximate
06:17PM 40.8901 -87.3915 267° West  Level FlightAware Approximate
06:18PM 40.8845 -87.5201 88° East  Level FlightAware Approximate
06:19PM 40.8901 -87.2982 88° East  Level FlightAware Approximate
06:20PM 40.8863 -87.5575 269° West  Level FlightAware Approximate
06:21PM 40.8785 -87.8165 266° West  Level FlightAware Approximate
06:22PM 40.8648 -88.0751 268° West  Level FlightAware Approximate
06:23PM 40.8559 -88.3340 268° West  Level FlightAware Approximate
06:24PM 40.8466 -88.5929 267° West  Level FlightAware Approximate
06:25PM 40.8366 -88.8517 267° West  Level FlightAware Approximate
06:26PM 40.8291 -89.1106 268° West  Level FlightAware Approximate
06:27PM 40.8202 -89.3695 267° West  Level FlightAware Approximate
06:28PM 40.8106 -89.6282 267° West  Level FlightAware Approximate
06:29PM 40.8005 -89.8869 267° West  Level FlightAware Approximate
06:30PM 40.7876 -90.1453 266° West  Level FlightAware Approximate
06:31PM 40.7740 -90.4036 266° West  Level FlightAware Approximate
06:32PM 40.7598 -90.6617 266° West  Level FlightAware Approximate
06:33PM 40.7444 -90.9198 265° West  Level FlightAware Approximate
06:34PM 40.7273 -91.1775 265° West  Level FlightAware Approximate
06:35PM 40.7039 -91.4353 261° West  Level FlightAware Approximate
06:36PM 40.6878 -91.6940 266° West  Level FlightAware Approximate
06:37PM 40.6733 -91.9530 266° West  Level FlightAware Approximate
06:38PM 40.6583 -92.2118 266° West  Level FlightAware Approximate
06:39PM 40.6382 -92.4699 263° West  Level FlightAware Approximate
06:40PM 40.6125 -92.7271 263° West  Level FlightAware Approximate
06:41PM 40.5897 -92.9847 264° West  Level FlightAware Approximate
06:42PM 40.5694 -93.2425 264° West  Level FlightAware Approximate
06:43PM 40.5488 -93.5003 265° West  Level FlightAware Approximate
06:44PM 40.5309 -93.7583 265° West  Level FlightAware Approximate
06:45PM 40.5123 -94.0162 265° West  Level FlightAware Approximate
06:46PM 40.4918 -94.2737 263° West  Level FlightAware Approximate
06:47PM 40.4682 -94.5307 263° West  Level FlightAware Approximate
06:48PM 40.4441 -94.7876 263° West  Level FlightAware Approximate
06:49PM 40.4193 -95.0442 263° West  Level FlightAware Approximate
06:50PM 40.3940 -95.3007 263° West  Level FlightAware Approximate
06:51PM 40.3681 -95.5569 263° West  Level FlightAware Approximate
06:52PM 40.3419 -95.8130 262° West  Level FlightAware Approximate
06:53PM 40.3156 -96.0690 262° West  Level FlightAware Approximate
06:54PM 40.2887 -96.3247 262° West  Level FlightAware Approximate
06:55PM 40.2612 -96.5803 262° West  Level FlightAware Approximate
06:56PM 40.2332 -96.8356 262° West  Level FlightAware Approximate
06:57PM 40.2046 -97.0908 262° West  Level FlightAware Approximate
06:58PM 40.1756 -97.3457 262° West  Level FlightAware Approximate
06:59PM 40.1460 -97.6005 261° West  Level FlightAware Approximate
07:00PM 40.1159 -97.8550 261° West  Level FlightAware Approximate
07:01PM 40.0853 -98.1093 261° West  Level FlightAware Approximate
07:02PM 40.0540 -98.3633 261° West  Level FlightAware Approximate
07:03PM 40.0222 -98.6171 261° West  Level FlightAware Approximate
07:04PM 39.9899 -98.8707 261° West  Level FlightAware Approximate
07:05PM 39.9566 -99.1239 260° West  Level FlightAware Approximate
07:06PM 39.9216 -99.3767 260° West  Level FlightAware Approximate
07:07PM 39.8861 -99.6291 260° West  Level FlightAware Approximate
07:08PM 39.8501 -99.8813 260° West  Level FlightAware Approximate
07:09PM 39.8135 -100.1333 259° West  Level FlightAware Approximate
07:10PM 39.7764 -100.3850 259° West  Level FlightAware Approximate
07:11PM 39.7410 -100.6369 260° West  Level FlightAware Approximate
07:12PM 39.7059 -100.8888 260° West  Level FlightAware Approximate
07:13PM 39.6703 -101.1405 260° West  Level FlightAware Approximate
07:14PM 39.6341 -101.3919 259° West  Level FlightAware Approximate
07:15PM 39.5974 -101.6430 259° West  Level FlightAware Approximate
07:16PM 39.5596 -101.8937 258° West  Level FlightAware Approximate
07:17PM 39.5187 -102.1435 258° West  Level FlightAware Approximate
07:18PM 39.4772 -102.3930 258° West  Level FlightAware Approximate
07:19PM 39.4352 -102.6421 258° West  Level FlightAware Approximate
07:20PM 39.3929 -102.8899 258° West  Level FlightAware Approximate
07:21PM 39.3501 -103.1375 257° West  Level FlightAware Approximate
07:22PM 39.3148 -103.3858 257° West  Level FlightAware Approximate
07:23PM 39.2691 -103.6322 256° West  Level FlightAware Approximate
07:24PM 39.2245 -103.8776 253° West  Level FlightAware Approximate
07:24PM 38.6114 -105.8856 247° West 283 326 15,800  Level Denver Center
07:25PM 39.1821 -104.1241 258° West  Level FlightAware Approximate
07:25PM 38.5806 -105.9569 241° Southwest 278 320 15,400  Level Denver Center
07:26PM 39.1436 -104.3718 258° West  Level FlightAware Approximate
07:27PM 39.0955 -104.6166 257° West  Level FlightAware Approximate
07:27PM 38.8000 -106.1167 312° West  Level FlightAware Approximate
07:28PM 39.0323 -104.8541 252° West  Level FlightAware Approximate
07:29PM 38.9459 -105.0791 247° West  Level FlightAware Approximate
07:34PM 38.8142 -106.1206 312° West  Level Estimated
07:35PM 38.8142 -106.1206 312° West  Level Estimated
07:36PM 38.8142 -106.1206 312° West  Level Estimated
07:37PM 38.8142 -106.1206 312° West  Level Estimated
07:38PM 38.8142 -106.1206 312° West  Level Estimated
07:39PM 38.8142 -106.1206 312° West  Level Estimated